Mt Baker
Mt. Baker Ski Area
Latest observation 09/01 16:00 PDT
| Time (PDT) | Temp °F 5020' | Temp °F 4210' | RH % 5020' | RH % 4210' | Min mph 5020' | Spd mph 5020' | Gust mph 5020' | Dir ° 5020' | Pcp1 in 4210' | PcpSum in 4210' | 24Sno in 4210' | SnoHt in 4210' | SR W/m² 5020' |
|---|---|---|---|---|---|---|---|---|---|---|---|---|---|
| 09/01 16:00 | 53 | 57 | 84 | 77 | 4 | 10 | 16 | 219 | 0.00 | 0.00 | 45.3 | 7.3 | 299 |
| 09/01 15:00 | 54 | 59 | 83 | 75 | 3 | 9 | 17 | 215 | 0.00 | 0.00 | 57.0 | 7.2 | 387 |
| 09/01 14:00 | 56 | 61 | 73 | 61 | 2 | 8 | 15 | 209 | 0.00 | 0.00 | 44.0 | 7.8 | 643 |
| 09/01 13:00 | 58 | 63 | 60 | 54 | 6 | 9 | 13 | 182 | 0.00 | 0.00 | 43.3 | 7.9 | 773 |
| 09/01 12:00 | 58 | 62 | 62 | 57 | 5 | 8 | 15 | 161 | 0.00 | 0.00 | 40.0 | 7.7 | 729 |
| 09/01 11:00 | 58 | 62 | 60 | 54 | 5 | 8 | 12 | 154 | 0.00 | 0.00 | 38.8 | 7.8 | 626 |
| 09/01 10:00 | 54 | 58 | 73 | 67 | 6 | 10 | 15 | 157 | 0.00 | 0.00 | 45.2 | 7.5 | 459 |
| 09/01 09:00 | 54 | 57 | 71 | 71 | 6 | 11 | 16 | 158 | 0.00 | 0.00 | 46.1 | 7.3 | 302 |
| 09/01 08:00 | 54 | 57 | 72 | 68 | 4 | 8 | 15 | 182 | 0.00 | 0.00 | 53.5 | 7.6 | 97 |
| 09/01 07:00 | 56 | 55 | 57 | 68 | 0 | 7 | 16 | 182 | 0.00 | 0.00 | 42.7 | 7.4 | 7 |
| 09/01 06:00 | 53 | 56 | 72 | 66 | 3 | 6 | 12 | 209 | 0.00 | 0.00 | 43.8 | 7.4 | 0 |
| 09/01 05:00 | 55 | 57 | 66 | 63 | 7 | 12 | 20 | 177 | 0.00 | 0.00 | 55.5 | 7.6 | 0 |
| 09/01 04:00 | 56 | 59 | 59 | 59 | 7 | 14 | 21 | 169 | 0.00 | 0.00 | 55.0 | 7.5 | 0 |
| 09/01 03:00 | 57 | 59 | 55 | 57 | 6 | 12 | 21 | 180 | 0.00 | 0.00 | 55.3 | 7.4 | 0 |
| 09/01 02:00 | 57 | 59 | 56 | 58 | 1 | 9 | 25 | 174 | 0.00 | 0.00 | 43.7 | 7.2 | 0 |
| 09/01 01:00 | 57 | 59 | 60 | 61 | 5 | 10 | 18 | 172 | 0.00 | 0.00 | 55.7 | 7.2 | 0 |
| 09/01 00:00 | 56 | 59 | 61 | 61 | 5 | 9 | 13 | 180 | 0.00 | 0.00 | 56.0 | 7.3 | 0 |
| 08/31 23:00 | 57 | 59 | 61 | 59 | 0 | 2 | 6 | 229 | 0.00 | 0.00 | 57.0 | 7.1 | 0 |
| 08/31 22:00 | 59 | 58 | 53 | 64 | 1 | 3 | 4 | 225 | 0.00 | 0.00 | 59.5 | 7.2 | 0 |
| 08/31 21:00 | 60 | 57 | 52 | 68 | 1 | 3 | 6 | 184 | 0.00 | 0.00 | 61.0 | 7.0 | 0 |
| 08/31 20:00 | 60 | 59 | 52 | 66 | 0 | 5 | 9 | 180 | 0.00 | 0.00 | 61.4 | 7.2 | 16 |
| 08/31 19:00 | 62 | 62 | 51 | 59 | 1 | 6 | 11 | 198 | 0.00 | 0.00 | 48.5 | 7.2 | 168 |
| 08/31 18:00 | 63 | 66 | 49 | 45 | 4 | 9 | 15 | 193 | 0.00 | 0.00 | 46.6 | 7.8 | 358 |
| 08/31 17:00 | 61 | 66 | 51 | 44 | 5 | 11 | 18 | 191 | 0.00 | 0.00 | 45.3 | 7.7 | 434 |

